createdAt,value
2022-12-17T00:02:42.180Z,50.13
2022-12-17T00:05:28.034Z,59.73
2022-12-17T00:08:18.053Z,75.73
2022-12-17T00:11:04.528Z,60.57
2022-12-17T00:13:51.335Z,60.77
2022-12-17T00:16:37.179Z,67.57
2022-12-17T00:19:22.961Z,45.03
2022-12-17T00:22:10.545Z,63.20
2022-12-17T00:24:56.389Z,76.27
2022-12-17T00:27:42.062Z,75.17
2022-12-17T00:30:28.164Z,67.00
2022-12-17T00:33:13.602Z,79.10
2022-12-17T00:35:59.307Z,51.80
2022-12-17T00:38:44.840Z,91.97
2022-12-17T00:41:30.452Z,72.30
2022-12-17T00:44:17.085Z,68.50
2022-12-17T00:47:02.563Z,83.30
2022-12-17T00:49:47.814Z,106.23
2022-12-17T00:52:33.401Z,63.27
2022-12-17T00:55:19.169Z,57.67
2022-12-17T00:58:04.748Z,65.67
2022-12-17T01:00:51.325Z,59.87
2022-12-17T01:03:37.518Z,59.47
2022-12-17T01:06:23.573Z,58.57
2022-12-17T01:09:08.972Z,57.47
2022-12-17T01:11:56.609Z,53.33
2022-12-17T01:14:43.051Z,50.63
2022-12-17T01:17:28.391Z,46.70
2022-12-17T01:20:13.881Z,56.87
2022-12-17T01:22:59.390Z,70.87
2022-12-17T01:25:45.019Z,81.80
2022-12-17T01:28:31.480Z,61.60
2022-12-17T01:31:17.056Z,54.13
2022-12-17T01:34:02.922Z,58.13
2022-12-17T01:36:48.370Z,77.57
2022-12-17T01:39:34.153Z,59.93
2022-12-17T01:42:19.731Z,85.83
2022-12-17T01:45:14.536Z,97.97
2022-12-17T01:48:05.776Z,66.50
2022-12-17T01:50:56.259Z,60.60
2022-12-17T01:53:46.355Z,94.30
2022-12-17T01:56:32.436Z,68.90
2022-12-17T01:59:20.893Z,94.20
2022-12-17T02:02:12.586Z,100.50
2022-12-17T02:07:56.581Z,87.90
2022-12-17T02:11:08.502Z,96.70
2022-12-17T02:13:59.958Z,112.57
2022-12-17T02:17:00.436Z,88.53
2022-12-17T02:20:10.400Z,95.20
2022-12-17T02:23:08.367Z,90.67
2022-12-17T02:26:19.512Z,118.13
2022-12-17T02:29:08.007Z,64.23
2022-12-17T02:31:55.276Z,59.57
2022-12-17T02:34:41.354Z,88.17
2022-12-17T02:37:27.049Z,51.53
2022-12-17T02:40:12.928Z,126.47
2022-12-17T02:43:01.105Z,64.00
2022-12-17T02:45:46.803Z,64.27
2022-12-17T02:48:31.975Z,70.17
2022-12-17T02:51:18.056Z,57.73
2022-12-17T02:54:04.700Z,126.07
2022-12-17T02:56:50.130Z,89.47
2022-12-17T02:59:35.598Z,71.60
2022-12-17T03:02:21.034Z,66.30
2022-12-17T03:05:27.990Z,86.47
2022-12-17T03:08:13.337Z,63.33
2022-12-17T03:10:58.945Z,58.73
2022-12-17T03:13:47.003Z,51.93
2022-12-17T03:16:37.755Z,57.63
2022-12-17T03:19:23.861Z,65.07
2022-12-17T03:22:09.403Z,52.03
2022-12-17T03:24:55.003Z,56.60
2022-12-17T03:27:40.514Z,52.50
2022-12-17T03:30:27.565Z,53.60
2022-12-17T03:33:15.871Z,52.27
2022-12-17T03:36:01.514Z,56.70
2022-12-17T03:38:46.844Z,54.23
2022-12-17T03:41:32.394Z,50.70
2022-12-17T03:44:17.832Z,41.87
2022-12-17T03:47:03.505Z,49.23
2022-12-17T03:49:48.905Z,62.03
2022-12-17T03:52:34.812Z,52.37
2022-12-17T03:55:20.210Z,53.03
2022-12-17T03:58:05.692Z,49.03
2022-12-17T04:00:51.160Z,56.77
2022-12-17T04:03:36.660Z,54.50
2022-12-17T04:06:22.352Z,44.40
2022-12-17T04:09:07.759Z,47.53
2022-12-17T04:11:53.235Z,54.63
2022-12-17T04:14:38.619Z,48.57
2022-12-17T04:17:24.171Z,46.77
2022-12-17T04:20:09.925Z,42.30
2022-12-17T04:22:55.477Z,48.90
2022-12-17T04:25:41.102Z,51.43
2022-12-17T04:28:26.534Z,53.10
2022-12-17T04:31:11.996Z,47.70
2022-12-17T04:33:57.252Z,54.40
2022-12-17T04:36:42.701Z,52.93
2022-12-17T04:39:28.318Z,47.13
2022-12-17T04:42:13.632Z,53.00
2022-12-17T04:44:59.108Z,49.53
2022-12-17T04:47:44.671Z,47.57
2022-12-17T04:50:31.244Z,54.30
2022-12-17T04:53:21.414Z,56.03
2022-12-17T04:56:07.505Z,58.47
2022-12-17T04:58:53.557Z,55.50
2022-12-17T05:01:39.785Z,64.77
2022-12-17T05:04:26.640Z,61.03
2022-12-17T05:07:12.241Z,55.17
2022-12-17T05:09:58.168Z,56.33
2022-12-17T05:12:44.747Z,57.03
2022-12-17T05:15:30.521Z,49.40
2022-12-17T05:18:27.622Z,51.17
2022-12-17T05:21:13.190Z,28.57
2022-12-17T05:23:58.813Z,48.77
2022-12-17T05:26:46.270Z,50.87
2022-12-17T05:29:33.208Z,42.47
2022-12-17T05:32:18.905Z,47.30
2022-12-17T05:35:05.303Z,51.27
2022-12-17T05:37:51.167Z,38.03
2022-12-17T05:40:36.769Z,48.90
2022-12-17T05:43:24.947Z,35.63
2022-12-17T05:46:10.704Z,45.10
2022-12-17T05:48:56.491Z,38.70
2022-12-17T05:51:42.056Z,59.87
2022-12-17T05:54:27.736Z,50.67
2022-12-17T05:57:13.701Z,47.53
2022-12-17T05:59:59.797Z,39.17
2022-12-17T06:02:45.398Z,51.23
2022-12-17T06:05:31.628Z,44.63
2022-12-17T06:08:24.711Z,45.67
2022-12-17T06:11:17.752Z,52.87
2022-12-17T06:14:03.469Z,54.23
2022-12-17T06:16:48.901Z,48.97
2022-12-17T06:19:34.589Z,47.60
2022-12-17T06:22:21.504Z,46.37
2022-12-17T06:25:07.257Z,55.30
2022-12-17T06:27:52.855Z,55.43
2022-12-17T06:30:38.252Z,54.10
2022-12-17T06:33:26.393Z,50.40
2022-12-17T06:36:19.772Z,48.93
2022-12-17T06:39:07.439Z,46.03
2022-12-17T06:41:52.933Z,46.93
2022-12-17T06:44:47.430Z,47.10
2022-12-17T06:47:33.123Z,43.27
2022-12-17T06:50:19.618Z,43.07
2022-12-17T06:53:05.006Z,50.50
2022-12-17T06:55:50.874Z,52.63
2022-12-17T06:58:43.613Z,48.23
2022-12-17T07:01:29.335Z,48.93
2022-12-17T07:04:15.230Z,33.67
2022-12-17T07:07:01.599Z,46.87
2022-12-17T07:09:47.358Z,49.50
2022-12-17T07:12:32.926Z,54.00
2022-12-17T07:15:18.807Z,43.83
2022-12-17T07:18:18.775Z,54.37
2022-12-17T07:21:04.549Z,44.80
2022-12-17T07:23:51.075Z,41.10
2022-12-17T07:26:41.367Z,50.33
2022-12-17T07:29:26.662Z,48.37
2022-12-17T07:32:12.068Z,33.77
2022-12-17T07:34:57.603Z,27.40
2022-12-17T07:37:42.963Z,55.10
2022-12-17T07:40:28.844Z,63.50
2022-12-17T07:43:14.049Z,53.17
2022-12-17T07:45:59.371Z,51.00
2022-12-17T07:48:45.047Z,34.17
2022-12-17T07:51:30.537Z,41.83
2022-12-17T07:54:15.801Z,41.80
2022-12-17T07:57:01.037Z,28.70
2022-12-17T07:59:46.339Z,29.07
2022-12-17T08:02:31.808Z,33.87
2022-12-17T08:05:17.804Z,55.97
2022-12-17T08:08:03.223Z,50.37
2022-12-17T08:10:48.694Z,60.00
2022-12-17T08:13:33.946Z,49.00
2022-12-17T08:16:19.604Z,45.87
2022-12-17T08:19:04.828Z,40.80
2022-12-17T08:21:50.339Z,54.60
2022-12-17T08:24:35.765Z,40.73
2022-12-17T08:27:21.020Z,39.60
2022-12-17T08:30:06.434Z,33.97
2022-12-17T08:32:51.645Z,35.10
2022-12-17T08:35:38.303Z,45.70
2022-12-17T08:38:25.061Z,27.57
2022-12-17T08:41:10.794Z,38.50
2022-12-17T08:43:56.620Z,23.37
2022-12-17T08:46:42.204Z,39.27
2022-12-17T08:49:28.842Z,28.87
2022-12-17T08:52:14.106Z,38.43
2022-12-17T08:55:00.771Z,37.97
2022-12-17T08:57:46.608Z,32.03
2022-12-17T09:00:32.812Z,44.50
2022-12-17T09:03:20.000Z,37.20
2022-12-17T09:06:07.686Z,41.43
2022-12-17T09:08:52.790Z,27.70
2022-12-17T09:11:38.137Z,33.30
2022-12-17T09:14:23.548Z,21.80
2022-12-17T09:17:09.198Z,26.97
2022-12-17T09:19:54.773Z,48.10
2022-12-17T09:22:40.286Z,55.20
2022-12-17T09:25:26.562Z,44.70
2022-12-17T09:28:12.149Z,46.00
2022-12-17T09:30:57.516Z,25.40
2022-12-17T09:33:42.992Z,45.23
2022-12-17T09:36:28.384Z,58.00
2022-12-17T09:39:13.636Z,44.93
2022-12-17T09:42:01.798Z,49.83
2022-12-17T09:45:16.603Z,51.13
2022-12-17T09:48:16.863Z,47.13
2022-12-17T09:51:03.569Z,43.57
2022-12-17T09:53:56.094Z,31.03
2022-12-17T09:56:45.089Z,40.70
2022-12-17T09:59:40.725Z,34.43
2022-12-17T10:02:43.145Z,34.47
2022-12-17T10:05:34.204Z,36.40
2022-12-17T10:08:22.921Z,30.70
2022-12-17T10:11:08.393Z,18.80
2022-12-17T10:13:53.618Z,26.27
2022-12-17T10:16:58.166Z,54.17
2022-12-17T10:19:56.489Z,28.77
2022-12-17T10:22:42.341Z,19.80
2022-12-17T10:25:38.263Z,39.90
2022-12-17T10:28:32.675Z,46.83
2022-12-17T10:31:19.600Z,29.93
2022-12-17T10:34:05.994Z,26.97
2022-12-17T10:37:17.864Z,32.60
2022-12-17T10:40:16.616Z,43.77
2022-12-17T10:43:03.676Z,36.53
2022-12-17T10:45:51.967Z,33.67
2022-12-17T10:48:40.397Z,23.17
2022-12-17T10:51:51.357Z,47.70
2022-12-17T10:54:49.643Z,49.60
2022-12-17T10:57:54.118Z,34.30
2022-12-17T11:00:50.132Z,22.07
2022-12-17T11:03:54.832Z,29.27
2022-12-17T11:06:47.639Z,20.43
2022-12-17T11:09:42.165Z,48.93
2022-12-17T11:12:31.043Z,38.20
2022-12-17T11:15:23.137Z,46.47
2022-12-17T11:18:11.595Z,33.07
2022-12-17T11:21:22.935Z,41.03
2022-12-17T11:24:10.632Z,27.17
2022-12-17T11:26:58.702Z,26.73
2022-12-17T11:29:44.088Z,41.43
2022-12-17T11:33:00.974Z,45.73
2022-12-17T11:36:07.354Z,40.17
2022-12-17T11:39:07.338Z,35.37
2022-12-17T11:41:56.162Z,51.27
2022-12-17T11:45:13.779Z,45.57
2022-12-17T11:48:27.454Z,55.83
2022-12-17T11:51:16.057Z,38.73
2022-12-17T11:54:22.540Z,53.53
2022-12-17T11:57:13.532Z,28.83
2022-12-17T12:00:36.604Z,37.73
2022-12-17T12:03:31.467Z,37.20
2022-12-17T12:06:27.273Z,36.73
2022-12-17T12:09:22.343Z,34.83
2022-12-17T12:12:32.347Z,33.43
2022-12-17T12:15:48.473Z,32.37
2022-12-17T12:19:09.212Z,43.63
2022-12-17T12:22:30.599Z,42.93
2022-12-17T12:25:29.831Z,43.30
2022-12-17T12:28:37.573Z,31.43
2022-12-17T12:31:33.571Z,38.23
2022-12-17T12:34:34.735Z,40.70
2022-12-17T12:37:23.608Z,42.60
2022-12-17T12:40:29.088Z,50.43
2022-12-17T12:43:33.335Z,36.57
2022-12-17T12:46:25.620Z,56.53
2022-12-17T12:49:36.911Z,45.70
2022-12-17T12:52:23.298Z,52.23
2022-12-17T12:55:13.820Z,50.53
2022-12-17T12:58:22.136Z,34.93
2022-12-17T13:01:07.518Z,49.80
2022-12-17T13:04:01.951Z,53.53
2022-12-17T13:06:54.326Z,50.37
2022-12-17T13:09:21.186Z,44.87
2022-12-17T13:12:08.464Z,56.53
2022-12-17T13:14:56.080Z,58.27
2022-12-17T13:17:27.431Z,44.90
2022-12-17T13:19:57.202Z,49.70
2022-12-17T13:22:24.711Z,58.20
2022-12-17T13:24:54.794Z,41.47
2022-12-17T13:27:33.444Z,40.37
2022-12-17T13:30:41.050Z,39.67
2022-12-17T13:33:22.549Z,34.87
2022-12-17T13:36:26.486Z,39.43
2022-12-17T13:39:22.488Z,38.83
2022-12-17T13:41:54.699Z,51.67
2022-12-17T13:44:49.246Z,27.87
2022-12-17T13:47:22.769Z,35.60
2022-12-17T13:50:31.791Z,45.20
2022-12-17T13:52:41.438Z,117.33
2022-12-17T13:55:13.473Z,59.93
2022-12-17T13:57:46.839Z,49.07
2022-12-17T14:00:30.739Z,31.33
2022-12-17T14:02:57.657Z,41.43
2022-12-17T14:05:26.860Z,24.73
2022-12-17T14:07:54.578Z,41.43
2022-12-17T14:10:22.409Z,33.50
2022-12-17T14:13:06.358Z,49.33
2022-12-17T14:15:35.753Z,37.07
2022-12-17T14:18:04.778Z,35.57
2022-12-17T14:20:35.957Z,36.53
2022-12-17T14:23:13.599Z,30.90
2022-12-17T14:25:43.469Z,43.90
2022-12-17T14:28:32.507Z,23.70
2022-12-17T14:31:29.707Z,42.57
2022-12-17T14:34:08.530Z,31.50
2022-12-17T14:36:40.004Z,36.77
2022-12-17T14:39:19.113Z,43.23
2022-12-17T14:42:04.955Z,45.07
2022-12-17T14:44:32.401Z,37.00
2022-12-17T14:47:19.844Z,35.83
2022-12-17T14:50:17.042Z,36.33
2022-12-17T14:52:45.935Z,32.93
2022-12-17T14:55:33.584Z,35.83
2022-12-17T14:58:12.534Z,77.33
2022-12-17T15:00:43.023Z,40.53
2022-12-17T15:03:19.349Z,34.23
2022-12-17T15:05:55.255Z,32.33
2022-12-17T15:08:22.588Z,28.47
2022-12-17T15:10:58.330Z,49.13
2022-12-17T15:13:25.264Z,41.17
2022-12-17T15:15:52.114Z,36.63
2022-12-17T15:18:18.935Z,33.60
2022-12-17T15:20:45.835Z,52.33
2022-12-17T15:23:18.540Z,49.73
2022-12-17T15:25:48.816Z,26.20
2022-12-17T15:28:17.051Z,28.80
2022-12-17T15:30:47.627Z,37.27
2022-12-17T15:33:16.092Z,38.73
2022-12-17T15:35:43.764Z,35.83
2022-12-17T15:38:12.009Z,55.60
2022-12-17T15:40:39.862Z,27.50
2022-12-17T15:43:11.390Z,29.17
2022-12-17T15:45:50.136Z,30.40
2022-12-17T15:48:23.369Z,36.40
2022-12-17T15:51:02.510Z,35.53
2022-12-17T15:53:29.488Z,33.03
2022-12-17T15:56:01.033Z,30.13
2022-12-17T15:58:28.182Z,40.43
2022-12-17T16:00:58.752Z,36.60
2022-12-17T16:03:26.852Z,42.83
2022-12-17T16:05:53.777Z,31.63
2022-12-17T16:08:20.653Z,40.57
2022-12-17T16:10:47.587Z,28.77
2022-12-17T16:13:15.871Z,39.53
2022-12-17T16:15:42.726Z,47.80
2022-12-17T16:18:09.769Z,43.33
2022-12-17T16:20:37.713Z,65.57
2022-12-17T16:23:04.631Z,42.30
2022-12-17T16:25:31.494Z,37.63
2022-12-17T16:27:58.407Z,42.93
2022-12-17T16:30:25.219Z,58.50
2022-12-17T16:32:52.161Z,31.40
2022-12-17T16:35:18.962Z,43.37
2022-12-17T16:37:45.742Z,42.07
2022-12-17T16:40:13.167Z,32.60
2022-12-17T16:42:39.927Z,33.33
2022-12-17T16:45:07.860Z,30.10
2022-12-17T16:47:34.788Z,34.13
2022-12-17T16:50:01.729Z,36.07
2022-12-17T16:52:28.737Z,24.43
2022-12-17T16:54:55.574Z,39.33
2022-12-17T16:57:23.513Z,36.50
2022-12-17T16:59:50.795Z,98.87
2022-12-17T17:02:19.890Z,32.50
2022-12-17T17:04:48.164Z,46.93
2022-12-17T17:07:15.552Z,33.37
2022-12-17T17:09:42.422Z,54.00
2022-12-17T17:12:09.311Z,39.40
2022-12-17T17:14:36.157Z,35.87
2022-12-17T17:17:03.122Z,27.73
2022-12-17T17:19:29.862Z,47.53
2022-12-17T17:21:56.704Z,26.40
2022-12-17T17:24:25.756Z,32.83
2022-12-17T17:26:54.278Z,49.63
2022-12-17T17:29:21.526Z,47.97
2022-12-17T17:34:35.565Z,37.67
2022-12-17T17:37:02.302Z,39.47
2022-12-17T17:39:33.233Z,27.90
2022-12-17T17:42:01.444Z,31.97
2022-12-17T17:44:28.369Z,44.10
2022-12-17T17:46:55.363Z,40.03
2022-12-17T17:49:22.444Z,34.57
2022-12-17T17:54:37.334Z,62.40
2022-12-17T17:57:04.423Z,64.23
2022-12-17T17:59:33.964Z,51.17
2022-12-17T18:02:03.515Z,43.67
2022-12-17T18:04:31.357Z,23.23
2022-12-17T18:09:45.163Z,28.27
2022-12-17T18:12:30.471Z,26.67
2022-12-17T18:15:13.583Z,29.57
2022-12-17T18:17:42.039Z,44.23
2022-12-17T18:20:09.896Z,23.17
2022-12-17T18:22:37.317Z,27.97
2022-12-17T18:25:04.789Z,37.77
2022-12-17T18:27:31.598Z,25.77
2022-12-17T18:29:58.407Z,28.23
2022-12-17T18:32:26.500Z,29.03
2022-12-17T18:34:53.382Z,31.43
2022-12-17T18:37:20.270Z,26.07
2022-12-17T18:39:47.413Z,51.10
2022-12-17T18:42:32.621Z,44.47
2022-12-17T18:44:59.373Z,35.30
2022-12-17T18:47:26.215Z,29.03
2022-12-17T18:49:53.303Z,31.30
2022-12-17T18:52:20.093Z,38.60
2022-12-17T18:54:46.876Z,25.47
2022-12-17T18:57:13.737Z,25.20
2022-12-17T18:59:40.967Z,31.97
2022-12-17T19:02:15.171Z,49.20
2022-12-17T19:04:42.591Z,45.70
2022-12-17T19:07:10.142Z,42.07
2022-12-17T19:09:38.426Z,24.60
2022-12-17T19:12:06.614Z,42.97
2022-12-17T19:14:33.988Z,26.47
2022-12-17T19:17:01.382Z,52.93
2022-12-17T19:19:35.246Z,53.23
2022-12-17T19:22:03.415Z,53.80
2022-12-17T19:24:30.172Z,23.27
2022-12-17T19:26:57.126Z,17.63
2022-12-17T19:29:23.999Z,28.03
2022-12-17T19:31:50.793Z,21.80
2022-12-17T19:34:19.209Z,25.20
2022-12-17T19:36:47.079Z,23.00
2022-12-17T19:39:16.903Z,24.50
2022-12-17T19:41:43.876Z,44.07
2022-12-17T19:44:16.071Z,48.27
2022-12-17T19:46:43.566Z,26.93
2022-12-17T19:49:17.142Z,18.23
2022-12-17T19:51:44.751Z,34.47
2022-12-17T19:54:13.905Z,116.17
2022-12-17T19:56:41.965Z,32.47
2022-12-17T19:59:10.310Z,58.30
2022-12-17T20:01:43.221Z,36.27
2022-12-17T20:04:12.966Z,37.60
2022-12-17T20:06:39.837Z,34.83
2022-12-17T20:09:07.784Z,28.13
2022-12-17T20:11:35.769Z,30.00
2022-12-17T20:14:18.042Z,18.00
2022-12-17T20:16:54.662Z,17.87
2022-12-17T20:19:27.078Z,14.60
2022-12-17T20:21:55.012Z,13.97
2022-12-17T20:24:27.183Z,23.30
2022-12-17T20:26:57.490Z,23.00
2022-12-17T20:29:25.835Z,28.57
2022-12-17T20:31:53.975Z,26.57
2022-12-17T20:34:22.459Z,24.43
2022-12-17T20:36:50.427Z,21.37
2022-12-17T20:39:20.736Z,31.00
2022-12-17T20:41:51.591Z,27.57
2022-12-17T20:44:18.754Z,36.93
2022-12-17T20:46:45.638Z,15.03
2022-12-17T20:49:13.258Z,19.50
2022-12-17T20:51:40.384Z,20.93
2022-12-17T20:54:08.606Z,21.10
2022-12-17T20:56:36.082Z,22.43
2022-12-17T20:59:05.987Z,40.33
2022-12-17T21:01:36.049Z,21.30
2022-12-17T21:04:04.403Z,22.50
2022-12-17T21:06:37.338Z,28.03
2022-12-17T21:09:04.858Z,29.83
2022-12-17T21:11:33.505Z,26.50
2022-12-17T21:14:04.090Z,30.57
2022-12-17T21:16:32.039Z,36.13
2022-12-17T21:19:00.588Z,29.13
2022-12-17T21:21:30.054Z,30.50
2022-12-17T21:23:58.019Z,31.10
2022-12-17T21:26:24.770Z,31.77
2022-12-17T21:28:54.643Z,12.77
2022-12-17T21:31:23.266Z,18.90
2022-12-17T21:33:52.115Z,23.93
2022-12-17T21:36:20.927Z,34.53
2022-12-17T21:38:48.788Z,19.97
2022-12-17T21:41:18.724Z,19.30
2022-12-17T21:43:46.065Z,23.43
2022-12-17T21:46:14.031Z,30.83
2022-12-17T21:48:42.755Z,21.27
2022-12-17T21:51:12.751Z,29.10
2022-12-17T21:53:42.818Z,18.47
2022-12-17T21:56:10.953Z,21.07
2022-12-17T21:58:39.391Z,35.73
2022-12-17T22:01:18.670Z,37.60
2022-12-17T22:03:48.380Z,34.63
2022-12-17T22:06:22.755Z,29.53
2022-12-17T22:08:52.248Z,33.57
2022-12-17T22:11:25.141Z,37.87
2022-12-17T22:14:18.836Z,37.90
2022-12-17T22:16:49.515Z,38.80
2022-12-17T22:19:23.233Z,37.23
2022-12-17T22:21:53.788Z,38.53
2022-12-17T22:24:24.996Z,41.43
2022-12-17T22:27:00.064Z,25.83
2022-12-17T22:29:46.752Z,37.23
2022-12-17T22:32:32.579Z,33.53
2022-12-17T22:35:57.541Z,34.37
2022-12-17T22:41:00.075Z,39.87
2022-12-17T22:44:33.646Z,37.53
2022-12-17T22:44:36.966Z,46.97
2022-12-17T22:46:18.251Z,46.67
2022-12-17T22:48:45.203Z,52.87
2022-12-17T22:51:14.343Z,60.23
2022-12-17T22:53:52.177Z,50.83
2022-12-17T22:56:34.053Z,48.50
2022-12-17T22:59:07.337Z,61.90
2022-12-17T23:01:35.239Z,54.63
2022-12-17T23:04:03.688Z,49.53
2022-12-17T23:06:30.612Z,53.23
2022-12-17T23:09:00.727Z,47.40
2022-12-17T23:11:28.962Z,55.40
2022-12-17T23:13:56.213Z,45.13
2022-12-17T23:16:23.680Z,36.97
2022-12-17T23:18:51.814Z,28.10
2022-12-17T23:21:27.839Z,51.67
2022-12-17T23:23:56.385Z,39.53
2022-12-17T23:26:31.755Z,46.10
2022-12-17T23:29:01.734Z,44.60
2022-12-17T23:31:34.512Z,41.93
2022-12-17T23:34:01.317Z,46.10
2022-12-17T23:36:28.106Z,35.77
2022-12-17T23:38:57.777Z,33.97
2022-12-17T23:41:28.578Z,38.87
2022-12-17T23:43:57.561Z,48.57
2022-12-17T23:46:30.322Z,22.07
2022-12-17T23:48:58.827Z,26.67
2022-12-17T23:51:28.113Z,38.47
2022-12-17T23:53:58.627Z,45.80
2022-12-17T23:56:27.267Z,27.40
2022-12-17T23:59:01.592Z,41.80
